createdAt,value
2023-03-29T00:01:35.161Z,-1.63
2023-03-29T00:04:07.296Z,-1.80
2023-03-29T00:06:35.627Z,-1.74
2023-03-29T00:09:03.393Z,-1.89
2023-03-29T00:11:31.730Z,-1.77
2023-03-29T00:13:59.169Z,-1.83
2023-03-29T00:16:26.989Z,-1.88
2023-03-29T00:18:54.529Z,-1.92
2023-03-29T00:21:23.614Z,-1.92
2023-03-29T00:23:51.014Z,-1.96
2023-03-29T00:26:18.810Z,-1.96
2023-03-29T00:28:46.173Z,-1.85
2023-03-29T00:31:15.622Z,-1.86
2023-03-29T00:33:43.833Z,-1.93
2023-03-29T00:36:12.168Z,-1.96
2023-03-29T00:38:40.964Z,-1.93
2023-03-29T00:41:09.673Z,-1.92
2023-03-29T00:43:57.918Z,-2.00
2023-03-29T00:46:26.959Z,-2.13
2023-03-29T00:48:58.217Z,-2.18
2023-03-29T00:51:30.385Z,-2.28
2023-03-29T00:54:03.519Z,-2.46
2023-03-29T00:56:34.939Z,-2.43
2023-03-29T00:59:06.449Z,-2.45
2023-03-29T01:01:42.389Z,-2.59
2023-03-29T01:04:11.112Z,-2.55
2023-03-29T01:06:41.632Z,-2.80
2023-03-29T01:09:13.992Z,-2.82
2023-03-29T01:11:46.918Z,-2.88
2023-03-29T01:14:20.472Z,-2.90
2023-03-29T01:16:48.425Z,-2.90
2023-03-29T01:19:20.964Z,-2.98
2023-03-29T01:21:53.149Z,-2.91
2023-03-29T01:24:43.570Z,-2.79
2023-03-29T01:27:17.652Z,-2.68
2023-03-29T01:29:51.543Z,-2.53
2023-03-29T01:32:23.363Z,-2.40
2023-03-29T01:34:55.665Z,-2.34
2023-03-29T01:37:29.822Z,-2.29
2023-03-29T01:39:57.156Z,-2.20
2023-03-29T01:42:39.644Z,-2.22
2023-03-29T01:45:15.328Z,-2.24
2023-03-29T01:47:49.176Z,-2.16
2023-03-29T01:50:19.970Z,-2.27
2023-03-29T01:52:54.193Z,-2.19
2023-03-29T01:55:26.036Z,-2.22
2023-03-29T01:57:58.301Z,-2.30
2023-03-29T02:00:28.787Z,-2.37
2023-03-29T02:03:00.550Z,-2.57
2023-03-29T02:05:30.129Z,-2.53
2023-03-29T02:07:59.197Z,-2.52
2023-03-29T02:10:28.001Z,-2.48
2023-03-29T02:12:56.145Z,-2.28
2023-03-29T02:15:23.686Z,-2.42
2023-03-29T02:17:53.349Z,-2.21
2023-03-29T02:20:25.512Z,-2.17
2023-03-29T02:23:00.382Z,-2.10
2023-03-29T02:25:29.061Z,-2.04
2023-03-29T02:27:57.481Z,-2.22
2023-03-29T02:30:28.846Z,-2.30
2023-03-29T02:33:05.061Z,-2.39
2023-03-29T02:35:35.442Z,-2.31
2023-03-29T02:38:05.746Z,-2.29
2023-03-29T02:40:34.620Z,-2.30
2023-03-29T02:43:04.378Z,-2.53
2023-03-29T02:45:32.700Z,-2.41
2023-03-29T02:48:04.019Z,-2.11
2023-03-29T02:50:36.538Z,-2.04
2023-03-29T02:53:11.222Z,-2.18
2023-03-29T02:55:39.332Z,-2.06
2023-03-29T02:58:07.218Z,-2.01
2023-03-29T03:00:35.934Z,-1.91
2023-03-29T03:03:07.158Z,-1.87
2023-03-29T03:05:34.695Z,-2.01
2023-03-29T03:08:02.572Z,-2.14
2023-03-29T03:10:30.207Z,-2.00
2023-03-29T03:12:57.933Z,-1.97
2023-03-29T03:15:25.598Z,-1.94
2023-03-29T03:17:53.719Z,-1.93
2023-03-29T03:20:22.756Z,-1.91
2023-03-29T03:22:50.564Z,-2.04
2023-03-29T03:25:20.273Z,-2.11
2023-03-29T03:27:48.888Z,-2.15
2023-03-29T03:30:17.104Z,-1.98
2023-03-29T03:32:45.018Z,-1.86
2023-03-29T03:35:12.943Z,-1.81
2023-03-29T03:37:42.295Z,-1.59
2023-03-29T03:40:10.306Z,-1.51
2023-03-29T03:42:38.532Z,-1.50
2023-03-29T03:45:07.646Z,-1.31
2023-03-29T03:47:35.765Z,-1.07
2023-03-29T03:50:03.175Z,-1.03
2023-03-29T03:52:30.990Z,-1.08
2023-03-29T03:54:59.889Z,-1.09
2023-03-29T03:57:27.895Z,-1.32
2023-03-29T03:59:55.395Z,-1.47
2023-03-29T04:02:23.298Z,-1.27
2023-03-29T04:04:50.772Z,-1.14
2023-03-29T04:07:18.747Z,-1.07
2023-03-29T04:09:46.142Z,-1.20
2023-03-29T04:12:15.609Z,-1.18
2023-03-29T04:14:42.988Z,-1.39
2023-03-29T04:17:11.348Z,-1.42
2023-03-29T04:19:38.915Z,-1.57
2023-03-29T04:22:06.709Z,-1.63
2023-03-29T04:24:34.060Z,-1.65
2023-03-29T04:27:01.903Z,-1.91
2023-03-29T04:29:30.911Z,-2.14
2023-03-29T04:31:59.070Z,-2.06
2023-03-29T04:34:26.528Z,-2.09
2023-03-29T04:36:54.694Z,-2.06
2023-03-29T04:39:22.274Z,-2.16
2023-03-29T04:41:50.045Z,-1.96
2023-03-29T04:44:17.567Z,-1.78
2023-03-29T04:46:46.772Z,-1.87
2023-03-29T04:49:14.478Z,-1.60
2023-03-29T04:51:42.322Z,-1.39
2023-03-29T04:54:09.863Z,-1.45
2023-03-29T04:56:37.737Z,-1.39
2023-03-29T04:59:05.178Z,-1.29
2023-03-29T05:01:32.991Z,-1.23
2023-03-29T05:04:01.904Z,-1.22
2023-03-29T05:06:29.750Z,-1.11
2023-03-29T05:08:57.080Z,-1.02
2023-03-29T05:11:24.916Z,-0.94
2023-03-29T05:13:52.281Z,-0.82
2023-03-29T05:16:20.315Z,-0.66
2023-03-29T05:18:47.782Z,-0.54
2023-03-29T05:21:17.096Z,-0.30
2023-03-29T05:23:44.544Z,-0.17
2023-03-29T05:26:12.177Z,-0.04
2023-03-29T05:28:39.607Z,0.16
2023-03-29T05:31:09.037Z,0.34
2023-03-29T05:33:36.804Z,0.46
2023-03-29T05:36:08.459Z,0.92
2023-03-29T05:38:38.139Z,1.30
2023-03-29T05:41:07.062Z,1.34
2023-03-29T05:43:35.237Z,1.26
2023-03-29T05:46:04.098Z,1.25
2023-03-29T05:48:31.592Z,1.19
2023-03-29T05:50:59.561Z,1.56
2023-03-29T05:53:27.166Z,1.56
2023-03-29T05:55:56.807Z,1.84
2023-03-29T05:58:24.206Z,1.89
2023-03-29T06:00:52.626Z,1.84
2023-03-29T06:03:22.294Z,2.06
2023-03-29T06:05:56.886Z,2.33
2023-03-29T06:08:26.591Z,2.47
2023-03-29T06:11:00.712Z,2.44
2023-03-29T06:13:29.726Z,2.59
2023-03-29T06:15:58.843Z,2.54
2023-03-29T06:18:26.559Z,2.63
2023-03-29T06:20:54.510Z,2.88
2023-03-29T06:23:22.702Z,3.31
2023-03-29T06:25:51.085Z,3.23
2023-03-29T06:28:20.110Z,3.26
2023-03-29T06:30:48.757Z,3.42
2023-03-29T06:33:16.355Z,3.22
2023-03-29T06:35:47.192Z,3.58
2023-03-29T06:38:14.938Z,3.46
2023-03-29T06:40:43.097Z,3.57
2023-03-29T06:43:10.917Z,3.59
2023-03-29T06:45:40.610Z,3.51
2023-03-29T06:48:08.649Z,3.48
2023-03-29T06:50:37.106Z,3.56
2023-03-29T06:53:05.034Z,3.33
2023-03-29T06:55:33.106Z,3.55
2023-03-29T06:58:02.456Z,3.64
2023-03-29T07:00:30.737Z,3.67
2023-03-29T07:03:04.085Z,3.68
2023-03-29T07:05:32.711Z,3.63
2023-03-29T07:08:00.207Z,3.80
2023-03-29T07:10:30.717Z,4.04
2023-03-29T07:12:58.993Z,4.14
2023-03-29T07:15:27.585Z,4.20
2023-03-29T07:17:55.882Z,4.35
2023-03-29T07:20:26.080Z,4.49
2023-03-29T07:22:53.608Z,4.58
2023-03-29T07:25:23.990Z,4.75
2023-03-29T07:27:51.650Z,4.79
2023-03-29T07:30:21.952Z,4.77
2023-03-29T07:32:51.131Z,5.01
2023-03-29T07:35:19.527Z,5.22
2023-03-29T07:37:48.475Z,5.29
2023-03-29T07:40:18.438Z,5.39
2023-03-29T07:42:46.695Z,5.50
2023-03-29T07:45:16.157Z,5.52
2023-03-29T07:47:44.048Z,5.40
2023-03-29T07:50:12.443Z,5.52
2023-03-29T07:52:40.155Z,5.30
2023-03-29T07:55:11.874Z,5.35
2023-03-29T07:57:39.824Z,5.36
2023-03-29T08:00:09.025Z,5.57
2023-03-29T08:02:36.511Z,5.57
2023-03-29T08:05:05.435Z,5.75
2023-03-29T08:07:33.076Z,5.80
2023-03-29T08:10:01.315Z,5.80
2023-03-29T08:12:30.484Z,6.00
2023-03-29T08:14:58.621Z,6.14
2023-03-29T08:17:26.291Z,6.25
2023-03-29T08:19:54.399Z,6.17
2023-03-29T08:22:21.834Z,6.33
2023-03-29T08:24:49.605Z,6.63
2023-03-29T08:27:17.082Z,6.97
2023-03-29T08:29:46.402Z,6.97
2023-03-29T08:32:14.034Z,7.22
2023-03-29T08:34:42.210Z,7.40
2023-03-29T08:37:09.641Z,7.54
2023-03-29T08:39:37.475Z,7.86
2023-03-29T08:42:30.134Z,7.98
2023-03-29T08:45:08.712Z,8.04
2023-03-29T08:47:47.924Z,8.06
2023-03-29T08:50:16.279Z,7.85
2023-03-29T08:52:49.006Z,8.11
2023-03-29T08:55:26.850Z,8.50
2023-03-29T08:57:55.909Z,8.55
2023-03-29T09:00:34.084Z,8.80
2023-03-29T09:03:04.886Z,8.88
2023-03-29T09:05:39.543Z,9.25
2023-03-29T09:08:12.368Z,9.21
2023-03-29T09:10:44.650Z,9.26
2023-03-29T09:13:23.185Z,9.21
2023-03-29T09:15:58.897Z,9.43
2023-03-29T09:18:36.482Z,9.13
2023-03-29T09:21:14.815Z,9.36
2023-03-29T09:24:10.525Z,9.57
2023-03-29T09:26:41.924Z,9.69
2023-03-29T09:29:25.727Z,9.49
2023-03-29T09:31:56.314Z,9.57
2023-03-29T09:34:28.794Z,9.62
2023-03-29T09:37:03.025Z,9.87
2023-03-29T09:39:30.729Z,9.83
2023-03-29T09:42:02.408Z,9.27
2023-03-29T09:44:35.774Z,9.32
2023-03-29T09:47:09.946Z,9.55
2023-03-29T09:49:43.050Z,9.42
2023-03-29T09:52:14.233Z,9.39
2023-03-29T09:54:41.708Z,9.49
2023-03-29T09:57:12.232Z,9.21
2023-03-29T09:59:40.256Z,9.38
2023-03-29T10:02:11.263Z,9.56
2023-03-29T10:04:39.122Z,9.27
2023-03-29T10:07:07.270Z,9.34
2023-03-29T10:09:35.795Z,9.46
2023-03-29T10:12:06.793Z,9.77
2023-03-29T10:14:36.437Z,9.74
2023-03-29T10:17:11.730Z,9.36
2023-03-29T10:19:49.063Z,9.58
2023-03-29T10:22:19.210Z,10.10
2023-03-29T10:24:50.676Z,10.32
2023-03-29T10:27:22.646Z,10.62
2023-03-29T10:29:51.380Z,10.65
2023-03-29T10:32:31.789Z,10.89
2023-03-29T10:35:09.002Z,10.73
2023-03-29T10:37:40.849Z,11.05
2023-03-29T10:40:19.489Z,11.17
2023-03-29T10:42:47.565Z,10.70
2023-03-29T10:45:20.614Z,10.40
2023-03-29T10:47:48.969Z,10.29
2023-03-29T10:50:19.022Z,10.74
2023-03-29T10:52:47.268Z,11.49
2023-03-29T10:55:14.912Z,11.78
2023-03-29T10:57:52.906Z,12.07
2023-03-29T11:00:26.463Z,12.31
2023-03-29T11:03:41.549Z,12.52
2023-03-29T11:06:17.668Z,12.87
2023-03-29T11:08:58.588Z,12.50
2023-03-29T11:11:47.416Z,12.45
2023-03-29T11:14:27.432Z,12.42
2023-03-29T11:17:05.215Z,11.82
2023-03-29T11:19:53.557Z,11.99
2023-03-29T11:22:27.303Z,12.63
2023-03-29T11:25:09.721Z,12.64
2023-03-29T11:27:45.828Z,12.27
2023-03-29T11:30:22.486Z,12.74
2023-03-29T11:33:00.316Z,13.05
2023-03-29T11:35:46.366Z,12.57
2023-03-29T11:38:23.661Z,12.15
2023-03-29T11:40:59.170Z,11.83
2023-03-29T11:43:32.145Z,11.67
2023-03-29T11:46:08.259Z,12.58
2023-03-29T11:48:41.646Z,12.98
2023-03-29T11:51:16.315Z,12.94
2023-03-29T11:53:54.545Z,12.70
2023-03-29T11:56:28.429Z,12.57
2023-03-29T11:59:02.728Z,12.25
2023-03-29T12:01:35.474Z,12.15
2023-03-29T12:04:11.058Z,12.09
2023-03-29T12:06:46.570Z,12.09
2023-03-29T12:09:25.653Z,11.93
2023-03-29T12:12:03.408Z,12.58
2023-03-29T12:14:45.297Z,12.66
2023-03-29T12:17:17.112Z,12.32
2023-03-29T12:19:49.174Z,12.71
2023-03-29T12:22:17.491Z,12.52
2023-03-29T12:24:50.542Z,12.64
2023-03-29T12:27:28.936Z,13.06
2023-03-29T12:30:34.341Z,13.57
2023-03-29T12:33:29.776Z,13.47
2023-03-29T12:36:09.857Z,12.98
2023-03-29T12:38:38.486Z,13.08
2023-03-29T12:41:16.422Z,13.45
2023-03-29T12:43:44.653Z,13.93
2023-03-29T12:46:18.396Z,14.29
2023-03-29T12:48:49.251Z,14.84
2023-03-29T12:51:19.977Z,14.69
2023-03-29T12:53:50.562Z,14.27
2023-03-29T12:56:21.494Z,14.11
2023-03-29T12:59:16.500Z,13.81
2023-03-29T13:01:58.682Z,13.12
2023-03-29T13:04:38.288Z,13.03
2023-03-29T13:07:06.227Z,12.66
2023-03-29T13:09:35.995Z,12.50
2023-03-29T13:12:24.055Z,12.63
2023-03-29T13:14:55.106Z,13.13
2023-03-29T13:17:27.643Z,12.88
2023-03-29T13:20:24.463Z,13.09
2023-03-29T13:23:04.656Z,12.66
2023-03-29T13:25:47.775Z,13.00
2023-03-29T13:28:23.033Z,13.15
2023-03-29T13:30:59.846Z,12.75
2023-03-29T13:33:50.949Z,12.48
2023-03-29T13:36:35.526Z,12.14
2023-03-29T13:39:06.688Z,12.49
2023-03-29T13:41:48.256Z,12.67
2023-03-29T13:44:27.506Z,12.63
2023-03-29T13:47:13.702Z,12.11
2023-03-29T13:49:43.906Z,11.77
2023-03-29T13:52:15.728Z,12.21
2023-03-29T13:54:51.967Z,11.86
2023-03-29T13:57:23.170Z,12.18
2023-03-29T13:59:57.648Z,12.38
2023-03-29T14:02:41.107Z,12.88
2023-03-29T14:05:12.642Z,13.05
2023-03-29T14:07:45.025Z,13.02
2023-03-29T14:10:15.754Z,12.83
2023-03-29T14:12:43.803Z,12.81
2023-03-29T14:15:21.858Z,12.69
2023-03-29T14:17:53.125Z,12.61
2023-03-29T14:20:20.689Z,12.34
2023-03-29T14:22:49.686Z,12.23
2023-03-29T14:25:18.542Z,11.69
2023-03-29T14:27:46.419Z,11.44
2023-03-29T14:30:22.136Z,11.33
2023-03-29T14:32:50.318Z,11.52
2023-03-29T14:35:18.384Z,11.35
2023-03-29T14:37:48.119Z,11.55
2023-03-29T14:40:18.648Z,11.63
2023-03-29T14:42:47.482Z,11.40
2023-03-29T14:45:17.310Z,11.58
2023-03-29T14:47:47.071Z,11.76
2023-03-29T14:50:21.590Z,11.66
2023-03-29T14:52:52.357Z,11.71
2023-03-29T14:55:21.050Z,11.76
2023-03-29T14:57:50.080Z,11.83
2023-03-29T15:00:23.266Z,11.65
2023-03-29T15:02:55.969Z,11.11
2023-03-29T15:05:28.955Z,11.19
2023-03-29T15:07:56.889Z,10.92
2023-03-29T15:10:24.586Z,10.70
2023-03-29T15:12:53.823Z,10.55
2023-03-29T15:15:23.735Z,10.37
2023-03-29T15:17:53.673Z,10.27
2023-03-29T15:20:25.134Z,10.30
2023-03-29T15:22:56.024Z,10.32
2023-03-29T15:25:26.548Z,10.40
2023-03-29T15:27:57.963Z,10.18
2023-03-29T15:30:33.619Z,10.05
2023-03-29T15:33:32.186Z,9.99
2023-03-29T15:36:02.472Z,9.99
2023-03-29T15:38:42.528Z,10.02
2023-03-29T15:41:12.492Z,9.88
2023-03-29T15:43:40.369Z,9.85
2023-03-29T15:46:11.783Z,9.66
2023-03-29T15:48:41.448Z,9.87
2023-03-29T15:51:10.080Z,9.80
2023-03-29T15:53:38.391Z,9.82
2023-03-29T15:56:12.785Z,10.04
2023-03-29T15:58:43.584Z,9.88
2023-03-29T16:01:22.006Z,9.61
2023-03-29T16:03:51.567Z,9.41
2023-03-29T16:06:19.073Z,9.73
2023-03-29T16:08:47.000Z,9.79
2023-03-29T16:11:14.515Z,9.50
2023-03-29T16:13:42.590Z,9.70
2023-03-29T16:16:11.030Z,9.68
2023-03-29T16:18:39.257Z,9.43
2023-03-29T16:21:13.271Z,9.46
2023-03-29T16:23:41.339Z,9.31
2023-03-29T16:26:11.509Z,9.22
2023-03-29T16:28:39.786Z,9.09
2023-03-29T16:31:09.421Z,9.04
2023-03-29T16:33:37.366Z,9.08
2023-03-29T16:36:05.745Z,9.41
2023-03-29T16:38:35.428Z,9.21
2023-03-29T16:41:03.091Z,9.20
2023-03-29T16:43:30.883Z,9.12
2023-03-29T16:45:58.344Z,9.29
2023-03-29T16:48:26.523Z,9.34
2023-03-29T16:50:54.055Z,9.47
2023-03-29T16:53:21.931Z,9.28
2023-03-29T16:55:51.027Z,9.15
2023-03-29T16:58:18.918Z,9.15
2023-03-29T17:00:48.301Z,9.07
2023-03-29T17:03:16.662Z,9.09
2023-03-29T17:05:47.478Z,8.93
2023-03-29T17:08:16.444Z,8.96
2023-03-29T17:10:44.051Z,9.13
2023-03-29T17:13:13.424Z,9.15
2023-03-29T17:15:41.028Z,8.84
2023-03-29T17:18:09.428Z,8.67
2023-03-29T17:20:39.143Z,8.74
2023-03-29T17:23:06.993Z,8.74
2023-03-29T17:25:34.545Z,8.61
2023-03-29T17:28:02.904Z,8.70
2023-03-29T17:30:33.975Z,8.73
2023-03-29T17:33:03.881Z,8.60
2023-03-29T17:35:32.977Z,8.63
2023-03-29T17:38:01.814Z,8.70
2023-03-29T17:40:29.316Z,8.57
2023-03-29T17:42:57.150Z,8.54
2023-03-29T17:45:24.698Z,8.66
2023-03-29T17:47:54.140Z,8.56
2023-03-29T17:50:21.652Z,8.47
2023-03-29T17:52:49.542Z,8.33
2023-03-29T17:55:17.286Z,8.28
2023-03-29T17:57:45.126Z,8.39
2023-03-29T18:00:16.350Z,8.54
2023-03-29T18:02:44.215Z,8.28
2023-03-29T18:05:13.248Z,8.25
2023-03-29T18:07:41.222Z,8.37
2023-03-29T18:10:09.443Z,8.41
2023-03-29T18:12:37.459Z,8.57
2023-03-29T18:15:05.764Z,8.72
2023-03-29T18:17:33.573Z,8.76
2023-03-29T18:20:01.087Z,8.30
2023-03-29T18:22:30.422Z,8.11
2023-03-29T18:24:57.814Z,8.08
2023-03-29T18:27:25.706Z,8.04
2023-03-29T18:29:53.192Z,8.09
2023-03-29T18:32:21.126Z,7.88
2023-03-29T18:34:48.638Z,7.81
2023-03-29T18:37:16.354Z,7.76
2023-03-29T18:39:45.289Z,7.77
2023-03-29T18:42:13.125Z,7.88
2023-03-29T18:44:40.779Z,7.89
2023-03-29T18:47:09.062Z,7.99
2023-03-29T18:49:36.482Z,7.76
2023-03-29T18:52:04.471Z,7.86
2023-03-29T18:54:31.941Z,8.17
2023-03-29T18:57:01.314Z,8.07
2023-03-29T18:59:28.922Z,8.08
2023-03-29T19:01:56.872Z,8.08
2023-03-29T19:04:26.845Z,8.05
2023-03-29T19:06:55.021Z,7.92
2023-03-29T19:09:22.897Z,7.76
2023-03-29T19:11:51.053Z,7.61
2023-03-29T19:14:19.872Z,7.61
2023-03-29T19:16:47.729Z,7.95
2023-03-29T19:19:15.317Z,8.12
2023-03-29T19:21:43.182Z,8.38
2023-03-29T19:24:10.651Z,8.19
2023-03-29T19:26:39.012Z,7.95
2023-03-29T19:29:06.524Z,7.83
2023-03-29T19:31:36.338Z,7.72
2023-03-29T19:34:04.548Z,7.66
2023-03-29T19:36:32.968Z,7.44
2023-03-29T19:39:00.582Z,7.46
2023-03-29T19:41:28.795Z,7.73
2023-03-29T19:43:56.427Z,7.75
2023-03-29T19:46:24.476Z,7.90
2023-03-29T19:48:53.465Z,7.77
2023-03-29T19:51:21.371Z,7.71
2023-03-29T19:53:48.832Z,7.75
2023-03-29T19:56:16.959Z,7.75
2023-03-29T19:58:44.896Z,7.92
2023-03-29T20:01:12.847Z,8.02
2023-03-29T20:03:42.964Z,7.80
2023-03-29T20:06:13.364Z,7.83
2023-03-29T20:08:41.204Z,7.96
2023-03-29T20:11:09.567Z,7.89
2023-03-29T20:13:39.053Z,8.10
2023-03-29T20:16:09.895Z,8.07
2023-03-29T20:18:38.088Z,7.82
2023-03-29T20:21:06.670Z,7.76
2023-03-29T20:23:36.036Z,8.01
2023-03-29T20:26:04.389Z,8.26
2023-03-29T20:28:32.028Z,8.07
2023-03-29T20:31:04.139Z,7.95
2023-03-29T20:33:31.986Z,7.80
2023-03-29T20:35:59.998Z,7.68
2023-03-29T20:38:27.908Z,7.80
2023-03-29T20:40:57.305Z,7.81
2023-03-29T20:43:24.839Z,7.82
2023-03-29T20:45:54.517Z,7.86
2023-03-29T20:48:23.485Z,7.72
2023-03-29T20:50:52.054Z,7.68
2023-03-29T20:53:19.679Z,7.74
2023-03-29T20:55:47.436Z,7.60
2023-03-29T20:58:16.456Z,7.58
2023-03-29T21:00:44.420Z,7.50
2023-03-29T21:03:12.029Z,7.52
2023-03-29T21:05:39.882Z,7.60
2023-03-29T21:08:07.511Z,7.66
2023-03-29T21:10:35.631Z,7.73
2023-03-29T21:13:03.416Z,7.93
2023-03-29T21:15:32.859Z,7.86
2023-03-29T21:18:00.624Z,7.94
2023-03-29T21:20:28.517Z,8.03
2023-03-29T21:22:57.688Z,8.07
2023-03-29T21:25:26.541Z,8.15
2023-03-29T21:27:54.038Z,8.05
2023-03-29T21:30:22.182Z,7.94
2023-03-29T21:32:51.148Z,7.89
2023-03-29T21:35:19.194Z,8.04
2023-03-29T21:37:46.638Z,8.03
2023-03-29T21:40:14.505Z,7.97
2023-03-29T21:42:41.889Z,8.02
2023-03-29T21:45:10.821Z,7.96
2023-03-29T21:47:38.370Z,8.11
2023-03-29T21:50:08.851Z,8.16
2023-03-29T21:52:36.294Z,8.15
2023-03-29T21:55:04.335Z,8.17
2023-03-29T21:57:32.038Z,8.24
2023-03-29T21:59:59.929Z,8.31
2023-03-29T22:02:30.122Z,8.29
2023-03-29T22:04:58.351Z,8.21
2023-03-29T22:07:27.539Z,8.23
2023-03-29T22:09:55.238Z,8.36
2023-03-29T22:12:22.714Z,8.53
2023-03-29T22:14:50.659Z,8.40
2023-03-29T22:17:18.132Z,8.63
2023-03-29T22:19:45.985Z,8.73
2023-03-29T22:22:14.371Z,8.83
2023-03-29T22:24:43.646Z,8.42
2023-03-29T22:27:11.668Z,8.38
2023-03-29T22:29:39.572Z,8.38
2023-03-29T22:32:07.067Z,8.33
2023-03-29T22:34:34.967Z,8.42
2023-03-29T22:37:02.494Z,8.55
2023-03-29T22:39:30.686Z,8.38
2023-03-29T22:41:59.631Z,8.22
2023-03-29T22:44:30.854Z,8.21
2023-03-29T22:46:58.282Z,8.24
2023-03-29T22:49:26.120Z,8.26
2023-03-29T22:51:53.659Z,8.32
2023-03-29T22:54:21.448Z,8.18
2023-03-29T22:56:48.909Z,8.30
2023-03-29T22:59:18.099Z,8.39
2023-03-29T23:01:45.489Z,8.42
2023-03-29T23:04:13.366Z,8.36
2023-03-29T23:06:40.847Z,8.36
2023-03-29T23:09:08.591Z,8.57
2023-03-29T23:11:36.249Z,8.63
2023-03-29T23:14:04.004Z,8.50
2023-03-29T23:16:33.036Z,8.61
2023-03-29T23:19:00.887Z,8.81
2023-03-29T23:21:28.313Z,8.74
2023-03-29T23:23:56.043Z,8.79
2023-03-29T23:26:23.411Z,8.93
2023-03-29T23:28:51.102Z,8.86
2023-03-29T23:31:18.726Z,9.02
2023-03-29T23:33:48.016Z,8.98
2023-03-29T23:36:17.852Z,8.89
2023-03-29T23:38:46.516Z,9.07
2023-03-29T23:41:13.994Z,9.18
2023-03-29T23:43:43.715Z,9.19
2023-03-29T23:46:12.848Z,9.13
2023-03-29T23:48:43.430Z,9.14
2023-03-29T23:51:12.348Z,9.08
2023-03-29T23:53:40.260Z,8.95
2023-03-29T23:56:08.035Z,8.69
2023-03-29T23:58:37.833Z,8.77
